KCNW/CNW METAR and TAF weather

Enter ICAO airport designator
Station Type Date Time Source
KCNW METAR 2019/09/21 03:55 UTC NOAA

KCNW 210355Z 14012G17KT 10SM SKC 27/22 A3004


Station Type Date Time Source
KCNW Decoded METAR 2019/09/21 03:55 UTC NOAA

Station name not available
Sep 20, 2019 - 11:55 PM EDT / 2019.09.21 0355 UTC
Wind: from the SE (140 degrees) at 14 MPH (12 KT) gusting to 20 MPH (17 KT):0
Visibility: 10 mile(s):0
Sky conditions: clear
Temperature: 80 F (27 C)
Dew Point: 71 F (22 C)
Relative Humidity: 74%
Pressure (altimeter): 30.04 in. Hg (1017 hPa)
ob: KCNW 210355Z 14012G17KT 10SM SKC 27/22 A3004
cycle: 4

Station Type Date Time Source
KCNW TAF UTC NOAA

Error!

Example: see airport list